sensor_id;sensor_type;location;lat;lon;timestamp;P1;durP1;ratioP1;P2;durP2;ratioP2
54945;SDS011;40846;44.788;20.486;2023-09-19T00:02:04;9.80;;;2.93;;
54945;SDS011;40846;44.788;20.486;2023-09-19T00:04:31;7.28;;;3.33;;
54945;SDS011;40846;44.788;20.486;2023-09-19T00:06:58;13.68;;;3.42;;
54945;SDS011;40846;44.788;20.486;2023-09-19T00:09:24;10.35;;;3.28;;
54945;SDS011;40846;44.788;20.486;2023-09-19T00:11:53;7.40;;;3.72;;
54945;SDS011;40846;44.788;20.486;2023-09-19T00:14:19;8.52;;;3.22;;
54945;SDS011;40846;44.788;20.486;2023-09-19T00:16:45;16.30;;;4.00;;
54945;SDS011;40846;44.788;20.486;2023-09-19T00:19:11;11.85;;;3.20;;
54945;SDS011;40846;44.788;20.486;2023-09-19T00:21:39;11.98;;;3.92;;
54945;SDS011;40846;44.788;20.486;2023-09-19T00:24:06;8.23;;;3.10;;
54945;SDS011;40846;44.788;20.486;2023-09-19T00:26:34;5.22;;;3.10;;
54945;SDS011;40846;44.788;20.486;2023-09-19T00:29:00;8.88;;;3.83;;
54945;SDS011;40846;44.788;20.486;2023-09-19T00:31:33;7.32;;;3.05;;
54945;SDS011;40846;44.788;20.486;2023-09-19T00:33:59;5.50;;;3.30;;
54945;SDS011;40846;44.788;20.486;2023-09-19T00:36:32;7.57;;;3.35;;
54945;SDS011;40846;44.788;20.486;2023-09-19T00:38:59;5.07;;;3.00;;
54945;SDS011;40846;44.788;20.486;2023-09-19T00:41:25;8.65;;;3.00;;
54945;SDS011;40846;44.788;20.486;2023-09-19T00:43:52;4.85;;;3.15;;
54945;SDS011;40846;44.788;20.486;2023-09-19T00:46:18;6.18;;;3.47;;
54945;SDS011;40846;44.788;20.486;2023-09-19T00:48:44;9.98;;;3.17;;
54945;SDS011;40846;44.788;20.486;2023-09-19T00:51:11;4.95;;;3.15;;
54945;SDS011;40846;44.788;20.486;2023-09-19T00:53:39;5.65;;;3.20;;
54945;SDS011;40846;44.788;20.486;2023-09-19T00:56:07;7.40;;;3.50;;
54945;SDS011;40846;44.788;20.486;2023-09-19T00:58:34;4.38;;;3.10;;
54945;SDS011;40846;44.788;20.486;2023-09-19T01:01:02;5.93;;;3.40;;
54945;SDS011;40846;44.788;20.486;2023-09-19T01:03:32;9.13;;;3.38;;
54945;SDS011;40846;44.788;20.486;2023-09-19T01:05:59;8.73;;;3.40;;
54945;SDS011;40846;44.788;20.486;2023-09-19T01:08:28;7.90;;;3.70;;
54945;SDS011;40846;44.788;20.486;2023-09-19T01:10:59;10.10;;;3.30;;
54945;SDS011;40846;44.788;20.486;2023-09-19T01:16:02;7.70;;;3.15;;
54945;SDS011;40846;44.788;20.486;2023-09-19T01:23:39;7.32;;;3.40;;
54945;SDS011;40846;44.788;20.486;2023-09-19T01:26:17;5.95;;;3.53;;
54945;SDS011;40846;44.788;20.486;2023-09-19T01:31:12;8.88;;;3.92;;
54945;SDS011;40846;44.788;20.486;2023-09-19T01:33:55;6.35;;;3.42;;
54945;SDS011;40846;44.788;20.486;2023-09-19T01:36:35;6.70;;;3.40;;
54945;SDS011;40846;44.788;20.486;2023-09-19T01:39:08;8.73;;;3.60;;
54945;SDS011;40846;44.788;20.486;2023-09-19T01:41:45;15.05;;;3.45;;
54945;SDS011;40846;44.788;20.486;2023-09-19T01:44:15;7.47;;;3.45;;
54945;SDS011;40846;44.788;20.486;2023-09-19T01:46:43;7.10;;;3.08;;
54945;SDS011;40846;44.788;20.486;2023-09-19T01:49:33;7.55;;;3.25;;
54945;SDS011;40846;44.788;20.486;2023-09-19T01:52:12;6.03;;;3.43;;
54945;SDS011;40846;44.788;20.486;2023-09-19T01:54:46;9.52;;;3.70;;
54945;SDS011;40846;44.788;20.486;2023-09-19T01:57:17;8.02;;;3.88;;
54945;SDS011;40846;44.788;20.486;2023-09-19T01:59:50;7.40;;;3.35;;
54945;SDS011;40846;44.788;20.486;2023-09-19T02:02:17;13.17;;;4.03;;
54945;SDS011;40846;44.788;20.486;2023-09-19T02:04:44;6.40;;;3.80;;
54945;SDS011;40846;44.788;20.486;2023-09-19T02:07:10;11.05;;;3.83;;
54945;SDS011;40846;44.788;20.486;2023-09-19T02:09:36;5.78;;;3.50;;
54945;SDS011;40846;44.788;20.486;2023-09-19T02:12:04;5.93;;;3.58;;
54945;SDS011;40846;44.788;20.486;2023-09-19T02:14:30;8.60;;;3.42;;
54945;SDS011;40846;44.788;20.486;2023-09-19T02:16:57;10.27;;;3.88;;
54945;SDS011;40846;44.788;20.486;2023-09-19T02:19:23;10.90;;;3.47;;
54945;SDS011;40846;44.788;20.486;2023-09-19T02:21:49;10.50;;;3.30;;
54945;SDS011;40846;44.788;20.486;2023-09-19T02:24:15;12.32;;;3.70;;
54945;SDS011;40846;44.788;20.486;2023-09-19T02:26:41;7.88;;;3.92;;
54945;SDS011;40846;44.788;20.486;2023-09-19T02:29:07;5.57;;;3.00;;
54945;SDS011;40846;44.788;20.486;2023-09-19T02:31:38;11.55;;;3.55;;
54945;SDS011;40846;44.788;20.486;2023-09-19T02:34:04;9.80;;;3.55;;
54945;SDS011;40846;44.788;20.486;2023-09-19T02:36:31;5.53;;;3.45;;
54945;SDS011;40846;44.788;20.486;2023-09-19T02:39:01;16.55;;;4.28;;
54945;SDS011;40846;44.788;20.486;2023-09-19T02:41:27;6.47;;;4.10;;
54945;SDS011;40846;44.788;20.486;2023-09-19T02:43:54;14.05;;;4.13;;
54945;SDS011;40846;44.788;20.486;2023-09-19T02:46:20;8.25;;;3.53;;
54945;SDS011;40846;44.788;20.486;2023-09-19T02:48:47;11.30;;;4.00;;
54945;SDS011;40846;44.788;20.486;2023-09-19T02:51:13;6.72;;;3.80;;
54945;SDS011;40846;44.788;20.486;2023-09-19T02:53:39;7.57;;;4.10;;
54945;SDS011;40846;44.788;20.486;2023-09-19T02:56:10;9.20;;;4.13;;
54945;SDS011;40846;44.788;20.486;2023-09-19T02:58:38;8.30;;;4.57;;
54945;SDS011;40846;44.788;20.486;2023-09-19T03:01:09;6.43;;;3.72;;
54945;SDS011;40846;44.788;20.486;2023-09-19T03:03:37;5.77;;;3.90;;
54945;SDS011;40846;44.788;20.486;2023-09-19T03:06:07;10.98;;;4.00;;
54945;SDS011;40846;44.788;20.486;2023-09-19T03:08:38;9.73;;;4.95;;
54945;SDS011;40846;44.788;20.486;2023-09-19T03:11:10;8.70;;;4.30;;
54945;SDS011;40846;44.788;20.486;2023-09-19T03:13:37;8.57;;;4.03;;
54945;SDS011;40846;44.788;20.486;2023-09-19T03:16:05;9.38;;;4.95;;
54945;SDS011;40846;44.788;20.486;2023-09-19T03:18:31;7.47;;;4.30;;
54945;SDS011;40846;44.788;20.486;2023-09-19T03:20:58;11.23;;;4.10;;
54945;SDS011;40846;44.788;20.486;2023-09-19T03:23:27;10.00;;;3.88;;
54945;SDS011;40846;44.788;20.486;2023-09-19T03:25:54;6.10;;;4.05;;
54945;SDS011;40846;44.788;20.486;2023-09-19T03:28:21;10.55;;;4.05;;
54945;SDS011;40846;44.788;20.486;2023-09-19T03:31:03;6.75;;;3.97;;
54945;SDS011;40846;44.788;20.486;2023-09-19T03:33:32;7.35;;;4.03;;
54945;SDS011;40846;44.788;20.486;2023-09-19T03:35:59;7.13;;;4.28;;
54945;SDS011;40846;44.788;20.486;2023-09-19T03:38:26;12.35;;;4.68;;
54945;SDS011;40846;44.788;20.486;2023-09-19T03:40:53;8.20;;;3.58;;
54945;SDS011;40846;44.788;20.486;2023-09-19T03:43:19;7.65;;;4.45;;
54945;SDS011;40846;44.788;20.486;2023-09-19T03:45:45;9.82;;;4.18;;
54945;SDS011;40846;44.788;20.486;2023-09-19T03:48:16;7.50;;;4.20;;
54945;SDS011;40846;44.788;20.486;2023-09-19T03:50:42;9.38;;;4.55;;
54945;SDS011;40846;44.788;20.486;2023-09-19T03:53:09;6.47;;;3.72;;
54945;SDS011;40846;44.788;20.486;2023-09-19T03:55:35;6.80;;;4.03;;
54945;SDS011;40846;44.788;20.486;2023-09-19T03:58:01;7.82;;;4.28;;
54945;SDS011;40846;44.788;20.486;2023-09-19T04:00:28;9.05;;;4.13;;
54945;SDS011;40846;44.788;20.486;2023-09-19T04:02:58;30.33;;;3.80;;
54945;SDS011;40846;44.788;20.486;2023-09-19T04:05:25;6.93;;;3.92;;
54945;SDS011;40846;44.788;20.486;2023-09-19T04:07:51;6.03;;;4.00;;
54945;SDS011;40846;44.788;20.486;2023-09-19T04:10:18;7.40;;;4.22;;
54945;SDS011;40846;44.788;20.486;2023-09-19T04:12:51;7.43;;;4.20;;
54945;SDS011;40846;44.788;20.486;2023-09-19T04:15:18;9.38;;;4.22;;
54945;SDS011;40846;44.788;20.486;2023-09-19T04:17:44;18.90;;;4.85;;
54945;SDS011;40846;44.788;20.486;2023-09-19T04:20:11;7.00;;;3.83;;
54945;SDS011;40846;44.788;20.486;2023-09-19T04:22:39;11.02;;;4.53;;
54945;SDS011;40846;44.788;20.486;2023-09-19T04:25:06;6.78;;;3.97;;
54945;SDS011;40846;44.788;20.486;2023-09-19T04:27:33;11.10;;;4.00;;
54945;SDS011;40846;44.788;20.486;2023-09-19T04:29:59;10.93;;;4.68;;
54945;SDS011;40846;44.788;20.486;2023-09-19T04:32:29;8.15;;;4.30;;
54945;SDS011;40846;44.788;20.486;2023-09-19T04:34:57;10.23;;;4.35;;
54945;SDS011;40846;44.788;20.486;2023-09-19T04:37:25;9.63;;;4.45;;
54945;SDS011;40846;44.788;20.486;2023-09-19T04:39:51;9.93;;;4.60;;
54945;SDS011;40846;44.788;20.486;2023-09-19T04:42:17;12.73;;;4.50;;
54945;SDS011;40846;44.788;20.486;2023-09-19T04:44:44;8.63;;;4.28;;
54945;SDS011;40846;44.788;20.486;2023-09-19T04:47:10;7.85;;;4.32;;
54945;SDS011;40846;44.788;20.486;2023-09-19T04:49:37;9.70;;;4.90;;
54945;SDS011;40846;44.788;20.486;2023-09-19T04:52:05;8.40;;;4.07;;
54945;SDS011;40846;44.788;20.486;2023-09-19T04:54:31;10.27;;;4.45;;
54945;SDS011;40846;44.788;20.486;2023-09-19T04:57:01;8.50;;;4.57;;
54945;SDS011;40846;44.788;20.486;2023-09-19T04:59:27;7.95;;;4.80;;
54945;SDS011;40846;44.788;20.486;2023-09-19T05:01:53;6.85;;;4.28;;
54945;SDS011;40846;44.788;20.486;2023-09-19T05:04:21;7.18;;;4.40;;
54945;SDS011;40846;44.788;20.486;2023-09-19T05:06:47;7.68;;;4.78;;
54945;SDS011;40846;44.788;20.486;2023-09-19T05:09:13;9.57;;;4.68;;
54945;SDS011;40846;44.788;20.486;2023-09-19T05:11:40;7.68;;;4.38;;
54945;SDS011;40846;44.788;20.486;2023-09-19T05:14:07;5.97;;;4.30;;
54945;SDS011;40846;44.788;20.486;2023-09-19T05:16:33;14.40;;;4.75;;
54945;SDS011;40846;44.788;20.486;2023-09-19T05:19:00;7.97;;;4.13;;
54945;SDS011;40846;44.788;20.486;2023-09-19T05:21:27;14.40;;;4.38;;
54945;SDS011;40846;44.788;20.486;2023-09-19T05:24:14;12.00;;;4.18;;
54945;SDS011;40846;44.788;20.486;2023-09-19T05:26:47;7.95;;;5.07;;
54945;SDS011;40846;44.788;20.486;2023-09-19T05:29:13;7.82;;;4.82;;
54945;SDS011;40846;44.788;20.486;2023-09-19T05:31:48;8.93;;;5.13;;
54945;SDS011;40846;44.788;20.486;2023-09-19T05:34:16;11.10;;;4.70;;
54945;SDS011;40846;44.788;20.486;2023-09-19T05:36:42;10.38;;;4.55;;
54945;SDS011;40846;44.788;20.486;2023-09-19T05:39:13;11.52;;;4.32;;
54945;SDS011;40846;44.788;20.486;2023-09-19T05:41:39;11.50;;;5.57;;
54945;SDS011;40846;44.788;20.486;2023-09-19T05:44:06;12.95;;;4.70;;
54945;SDS011;40846;44.788;20.486;2023-09-19T05:46:33;8.52;;;4.60;;
54945;SDS011;40846;44.788;20.486;2023-09-19T05:48:59;15.13;;;5.60;;
54945;SDS011;40846;44.788;20.486;2023-09-19T05:51:26;9.02;;;5.03;;
54945;SDS011;40846;44.788;20.486;2023-09-19T05:53:53;27.42;;;5.55;;
54945;SDS011;40846;44.788;20.486;2023-09-19T05:56:20;12.57;;;5.47;;
54945;SDS011;40846;44.788;20.486;2023-09-19T05:58:46;8.27;;;5.00;;
54945;SDS011;40846;44.788;20.486;2023-09-19T06:01:12;8.05;;;5.10;;
54945;SDS011;40846;44.788;20.486;2023-09-19T06:03:38;12.50;;;5.05;;
54945;SDS011;40846;44.788;20.486;2023-09-19T06:06:04;10.32;;;4.93;;
54945;SDS011;40846;44.788;20.486;2023-09-19T06:08:35;20.02;;;4.70;;
54945;SDS011;40846;44.788;20.486;2023-09-19T06:11:01;11.00;;;4.88;;
54945;SDS011;40846;44.788;20.486;2023-09-19T06:13:28;25.27;;;4.93;;
54945;SDS011;40846;44.788;20.486;2023-09-19T06:15:56;11.52;;;5.05;;
54945;SDS011;40846;44.788;20.486;2023-09-19T06:18:23;8.52;;;4.65;;
54945;SDS011;40846;44.788;20.486;2023-09-19T06:20:51;12.32;;;4.55;;
54945;SDS011;40846;44.788;20.486;2023-09-19T06:23:18;18.60;;;4.80;;
54945;SDS011;40846;44.788;20.486;2023-09-19T06:25:46;16.05;;;5.88;;
54945;SDS011;40846;44.788;20.486;2023-09-19T06:28:13;9.25;;;5.05;;
54945;SDS011;40846;44.788;20.486;2023-09-19T06:30:39;10.82;;;5.25;;
54945;SDS011;40846;44.788;20.486;2023-09-19T06:33:06;18.45;;;5.40;;
54945;SDS011;40846;44.788;20.486;2023-09-19T06:35:33;11.70;;;5.93;;
54945;SDS011;40846;44.788;20.486;2023-09-19T06:38:03;10.55;;;5.55;;
54945;SDS011;40846;44.788;20.486;2023-09-19T06:40:29;8.13;;;4.55;;
54945;SDS011;40846;44.788;20.486;2023-09-19T06:42:56;18.80;;;5.00;;
54945;SDS011;40846;44.788;20.486;2023-09-19T06:45:22;10.45;;;5.15;;
54945;SDS011;40846;44.788;20.486;2023-09-19T06:47:51;12.07;;;5.47;;
54945;SDS011;40846;44.788;20.486;2023-09-19T06:50:21;13.15;;;5.55;;
54945;SDS011;40846;44.788;20.486;2023-09-19T06:52:51;19.60;;;5.28;;
54945;SDS011;40846;44.788;20.486;2023-09-19T06:55:19;13.23;;;5.30;;
54945;SDS011;40846;44.788;20.486;2023-09-19T06:57:46;7.65;;;4.57;;
54945;SDS011;40846;44.788;20.486;2023-09-19T07:00:12;9.43;;;4.90;;
54945;SDS011;40846;44.788;20.486;2023-09-19T07:02:59;11.50;;;5.82;;
54945;SDS011;40846;44.788;20.486;2023-09-19T07:05:29;7.88;;;4.72;;
54945;SDS011;40846;44.788;20.486;2023-09-19T07:07:56;10.30;;;5.10;;
54945;SDS011;40846;44.788;20.486;2023-09-19T07:10:28;11.43;;;4.47;;
54945;SDS011;40846;44.788;20.486;2023-09-19T07:13:02;14.13;;;5.30;;
54945;SDS011;40846;44.788;20.486;2023-09-19T07:15:29;13.50;;;4.82;;
54945;SDS011;40846;44.788;20.486;2023-09-19T07:17:55;12.15;;;4.90;;
54945;SDS011;40846;44.788;20.486;2023-09-19T07:20:22;11.90;;;4.82;;
54945;SDS011;40846;44.788;20.486;2023-09-19T07:22:51;12.00;;;4.93;;
54945;SDS011;40846;44.788;20.486;2023-09-19T07:25:19;10.25;;;5.07;;
54945;SDS011;40846;44.788;20.486;2023-09-19T07:27:45;10.65;;;4.72;;
54945;SDS011;40846;44.788;20.486;2023-09-19T07:30:12;10.32;;;5.20;;
54945;SDS011;40846;44.788;20.486;2023-09-19T07:32:39;8.85;;;4.70;;
54945;SDS011;40846;44.788;20.486;2023-09-19T07:35:05;10.63;;;5.38;;
54945;SDS011;40846;44.788;20.486;2023-09-19T07:37:32;17.00;;;4.97;;
54945;SDS011;40846;44.788;20.486;2023-09-19T07:39:59;22.23;;;5.07;;
54945;SDS011;40846;44.788;20.486;2023-09-19T07:42:26;11.73;;;4.93;;
54945;SDS011;40846;44.788;20.486;2023-09-19T07:44:52;12.35;;;5.57;;
54945;SDS011;40846;44.788;20.486;2023-09-19T07:47:19;8.68;;;5.35;;
54945;SDS011;40846;44.788;20.486;2023-09-19T07:49:49;9.35;;;5.05;;
54945;SDS011;40846;44.788;20.486;2023-09-19T07:52:15;10.63;;;4.95;;
54945;SDS011;40846;44.788;20.486;2023-09-19T07:54:41;12.38;;;4.90;;
54945;SDS011;40846;44.788;20.486;2023-09-19T07:57:09;10.07;;;4.57;;
54945;SDS011;40846;44.788;20.486;2023-09-19T07:59:36;8.18;;;5.15;;
54945;SDS011;40846;44.788;20.486;2023-09-19T08:02:03;14.43;;;4.72;;
54945;SDS011;40846;44.788;20.486;2023-09-19T08:04:29;14.70;;;5.10;;
54945;SDS011;40846;44.788;20.486;2023-09-19T08:06:58;13.68;;;6.40;;
54945;SDS011;40846;44.788;20.486;2023-09-19T08:09:25;15.30;;;5.30;;
54945;SDS011;40846;44.788;20.486;2023-09-19T08:11:52;11.38;;;5.25;;
54945;SDS011;40846;44.788;20.486;2023-09-19T08:14:19;9.98;;;5.20;;
54945;SDS011;40846;44.788;20.486;2023-09-19T08:16:45;11.48;;;4.80;;
54945;SDS011;40846;44.788;20.486;2023-09-19T08:19:11;11.20;;;4.97;;
54945;SDS011;40846;44.788;20.486;2023-09-19T08:21:37;10.48;;;5.35;;
54945;SDS011;40846;44.788;20.486;2023-09-19T08:24:03;16.30;;;5.43;;
54945;SDS011;40846;44.788;20.486;2023-09-19T08:26:31;10.10;;;5.10;;
54945;SDS011;40846;44.788;20.486;2023-09-19T08:28:57;14.05;;;5.28;;
54945;SDS011;40846;44.788;20.486;2023-09-19T08:31:24;8.45;;;5.38;;
54945;SDS011;40846;44.788;20.486;2023-09-19T08:33:50;14.45;;;5.10;;
54945;SDS011;40846;44.788;20.486;2023-09-19T08:36:18;9.77;;;5.60;;
54945;SDS011;40846;44.788;20.486;2023-09-19T08:38:44;12.65;;;5.03;;
54945;SDS011;40846;44.788;20.486;2023-09-19T08:41:10;8.27;;;5.10;;
54945;SDS011;40846;44.788;20.486;2023-09-19T08:43:36;10.80;;;5.75;;
54945;SDS011;40846;44.788;20.486;2023-09-19T08:46:15;11.13;;;5.35;;
54945;SDS011;40846;44.788;20.486;2023-09-19T08:48:45;12.20;;;5.50;;
54945;SDS011;40846;44.788;20.486;2023-09-19T08:51:26;9.10;;;5.57;;
54945;SDS011;40846;44.788;20.486;2023-09-19T08:54:08;15.82;;;5.65;;
54945;SDS011;40846;44.788;20.486;2023-09-19T08:56:38;14.40;;;6.28;;
54945;SDS011;40846;44.788;20.486;2023-09-19T08:59:05;13.10;;;6.15;;
54945;SDS011;40846;44.788;20.486;2023-09-19T09:01:36;13.55;;;6.82;;
54945;SDS011;40846;44.788;20.486;2023-09-19T09:04:07;11.48;;;5.53;;
54945;SDS011;40846;44.788;20.486;2023-09-19T09:06:34;28.15;;;6.63;;
54945;SDS011;40846;44.788;20.486;2023-09-19T09:09:01;17.35;;;5.65;;
54945;SDS011;40846;44.788;20.486;2023-09-19T09:11:28;14.73;;;6.72;;
54945;SDS011;40846;44.788;20.486;2023-09-19T09:13:54;14.20;;;4.90;;
54945;SDS011;40846;44.788;20.486;2023-09-19T09:16:22;12.95;;;6.57;;
54945;SDS011;40846;44.788;20.486;2023-09-19T09:18:51;24.00;;;6.05;;
54945;SDS011;40846;44.788;20.486;2023-09-19T09:21:29;14.38;;;5.45;;
54945;SDS011;40846;44.788;20.486;2023-09-19T09:24:17;8.88;;;5.22;;
54945;SDS011;40846;44.788;20.486;2023-09-19T09:26:45;13.05;;;5.53;;
54945;SDS011;40846;44.788;20.486;2023-09-19T09:29:12;12.05;;;5.03;;
54945;SDS011;40846;44.788;20.486;2023-09-19T09:31:38;12.15;;;5.78;;
54945;SDS011;40846;44.788;20.486;2023-09-19T09:34:06;12.32;;;5.53;;
54945;SDS011;40846;44.788;20.486;2023-09-19T09:36:36;17.63;;;5.78;;
54945;SDS011;40846;44.788;20.486;2023-09-19T09:39:02;10.90;;;5.70;;
54945;SDS011;40846;44.788;20.486;2023-09-19T09:41:41;10.45;;;5.63;;
54945;SDS011;40846;44.788;20.486;2023-09-19T09:44:15;14.48;;;5.32;;
54945;SDS011;40846;44.788;20.486;2023-09-19T09:46:46;14.32;;;5.50;;
54945;SDS011;40846;44.788;20.486;2023-09-19T09:49:25;19.95;;;6.53;;
54945;SDS011;40846;44.788;20.486;2023-09-19T09:54:33;15.02;;;5.60;;
54945;SDS011;40846;44.788;20.486;2023-09-19T09:57:01;15.48;;;5.82;;
54945;SDS011;40846;44.788;20.486;2023-09-19T09:59:51;14.57;;;6.25;;
54945;SDS011;40846;44.788;20.486;2023-09-19T10:02:28;13.48;;;6.10;;
54945;SDS011;40846;44.788;20.486;2023-09-19T10:04:57;12.10;;;6.43;;
54945;SDS011;40846;44.788;20.486;2023-09-19T10:07:25;12.63;;;6.38;;
54945;SDS011;40846;44.788;20.486;2023-09-19T10:09:53;17.80;;;5.95;;
54945;SDS011;40846;44.788;20.486;2023-09-19T10:12:29;22.73;;;6.85;;
54945;SDS011;40846;44.788;20.486;2023-09-19T10:14:56;17.17;;;5.47;;
54945;SDS011;40846;44.788;20.486;2023-09-19T10:17:24;17.33;;;6.10;;
54945;SDS011;40846;44.788;20.486;2023-09-19T10:22:17;21.65;;;6.80;;
54945;SDS011;40846;44.788;20.486;2023-09-19T10:24:48;17.80;;;6.28;;
54945;SDS011;40846;44.788;20.486;2023-09-19T10:27:18;17.15;;;6.90;;
54945;SDS011;40846;44.788;20.486;2023-09-19T10:29:48;15.23;;;6.18;;
54945;SDS011;40846;44.788;20.486;2023-09-19T10:32:20;15.70;;;6.95;;
54945;SDS011;40846;44.788;20.486;2023-09-19T10:34:48;19.30;;;6.88;;
54945;SDS011;40846;44.788;20.486;2023-09-19T10:37:17;19.55;;;7.00;;
54945;SDS011;40846;44.788;20.486;2023-09-19T10:39:46;16.75;;;6.75;;
54945;SDS011;40846;44.788;20.486;2023-09-19T10:42:15;18.33;;;6.05;;
54945;SDS011;40846;44.788;20.486;2023-09-19T10:44:45;15.47;;;6.40;;
54945;SDS011;40846;44.788;20.486;2023-09-19T10:47:12;18.58;;;6.15;;
54945;SDS011;40846;44.788;20.486;2023-09-19T10:49:45;20.73;;;5.95;;
54945;SDS011;40846;44.788;20.486;2023-09-19T10:52:12;22.85;;;6.07;;
54945;SDS011;40846;44.788;20.486;2023-09-19T10:54:43;17.33;;;6.45;;
54945;SDS011;40846;44.788;20.486;2023-09-19T10:57:12;18.52;;;6.13;;
54945;SDS011;40846;44.788;20.486;2023-09-19T10:59:59;23.25;;;6.47;;
54945;SDS011;40846;44.788;20.486;2023-09-19T11:02:27;13.10;;;5.93;;
54945;SDS011;40846;44.788;20.486;2023-09-19T11:04:54;11.23;;;5.63;;
54945;SDS011;40846;44.788;20.486;2023-09-19T11:07:21;16.27;;;6.00;;
54945;SDS011;40846;44.788;20.486;2023-09-19T11:09:54;17.35;;;5.72;;
54945;SDS011;40846;44.788;20.486;2023-09-19T11:15:06;19.52;;;6.40;;
54945;SDS011;40846;44.788;20.486;2023-09-19T11:17:34;13.63;;;7.00;;
54945;SDS011;40846;44.788;20.486;2023-09-19T11:30:45;18.85;;;6.72;;
54945;SDS011;40846;44.788;20.486;2023-09-19T11:33:18;18.75;;;7.22;;
54945;SDS011;40846;44.788;20.486;2023-09-19T11:36:06;15.00;;;6.72;;
54945;SDS011;40846;44.788;20.486;2023-09-19T11:46:30;19.15;;;6.57;;
54945;SDS011;40846;44.788;20.486;2023-09-19T11:49:04;17.05;;;6.47;;
54945;SDS011;40846;44.788;20.486;2023-09-19T11:51:39;20.45;;;7.55;;
54945;SDS011;40846;44.788;20.486;2023-09-19T11:54:10;16.00;;;6.50;;
54945;SDS011;40846;44.788;20.486;2023-09-19T11:56:55;21.02;;;6.88;;
54945;SDS011;40846;44.788;20.486;2023-09-19T11:59:31;17.48;;;6.40;;
54945;SDS011;40846;44.788;20.486;2023-09-19T12:02:03;15.65;;;6.85;;
54945;SDS011;40846;44.788;20.486;2023-09-19T12:04:37;21.10;;;8.30;;
54945;SDS011;40846;44.788;20.486;2023-09-19T12:07:06;23.98;;;7.90;;
54945;SDS011;40846;44.788;20.486;2023-09-19T12:09:39;19.27;;;7.55;;
54945;SDS011;40846;44.788;20.486;2023-09-19T12:12:09;14.23;;;6.80;;
54945;SDS011;40846;44.788;20.486;2023-09-19T12:14:36;18.30;;;7.00;;
54945;SDS011;40846;44.788;20.486;2023-09-19T12:17:06;34.30;;;7.55;;
54945;SDS011;40846;44.788;20.486;2023-09-19T12:19:32;18.00;;;6.75;;
54945;SDS011;40846;44.788;20.486;2023-09-19T12:22:01;13.80;;;6.60;;
54945;SDS011;40846;44.788;20.486;2023-09-19T12:24:32;19.02;;;7.35;;
54945;SDS011;40846;44.788;20.486;2023-09-19T12:27:00;19.42;;;7.18;;
54945;SDS011;40846;44.788;20.486;2023-09-19T12:29:26;20.48;;;7.60;;
54945;SDS011;40846;44.788;20.486;2023-09-19T12:31:55;13.70;;;7.07;;
54945;SDS011;40846;44.788;20.486;2023-09-19T12:34:31;23.73;;;6.80;;
54945;SDS011;40846;44.788;20.486;2023-09-19T12:37:16;12.27;;;7.95;;
54945;SDS011;40846;44.788;20.486;2023-09-19T12:39:47;19.45;;;7.50;;
54945;SDS011;40846;44.788;20.486;2023-09-19T12:42:14;26.85;;;6.97;;
54945;SDS011;40846;44.788;20.486;2023-09-19T12:44:41;15.80;;;7.03;;
54945;SDS011;40846;44.788;20.486;2023-09-19T12:47:09;12.57;;;7.20;;
54945;SDS011;40846;44.788;20.486;2023-09-19T12:49:36;20.20;;;7.07;;
54945;SDS011;40846;44.788;20.486;2023-09-19T12:52:02;22.02;;;7.63;;
54945;SDS011;40846;44.788;20.486;2023-09-19T12:54:41;26.27;;;8.20;;
54945;SDS011;40846;44.788;20.486;2023-09-19T12:57:22;37.10;;;7.60;;
54945;SDS011;40846;44.788;20.486;2023-09-19T12:59:51;32.50;;;7.40;;
54945;SDS011;40846;44.788;20.486;2023-09-19T13:02:17;33.13;;;8.48;;
54945;SDS011;40846;44.788;20.486;2023-09-19T13:04:54;47.75;;;10.13;;
54945;SDS011;40846;44.788;20.486;2023-09-19T13:07:41;33.80;;;8.23;;
54945;SDS011;40846;44.788;20.486;2023-09-19T13:10:14;28.88;;;8.05;;
54945;SDS011;40846;44.788;20.486;2023-09-19T13:12:41;39.92;;;8.98;;
54945;SDS011;40846;44.788;20.486;2023-09-19T13:15:13;31.63;;;8.30;;
54945;SDS011;40846;44.788;20.486;2023-09-19T13:17:49;43.83;;;8.80;;
54945;SDS011;40846;44.788;20.486;2023-09-19T13:20:25;46.60;;;8.48;;
54945;SDS011;40846;44.788;20.486;2023-09-19T13:25:33;27.65;;;8.77;;
54945;SDS011;40846;44.788;20.486;2023-09-19T13:28:00;21.60;;;7.07;;
54945;SDS011;40846;44.788;20.486;2023-09-19T13:30:29;26.45;;;7.28;;
54945;SDS011;40846;44.788;20.486;2023-09-19T13:33:11;30.38;;;8.13;;
54945;SDS011;40846;44.788;20.486;2023-09-19T13:35:44;24.88;;;7.88;;
54945;SDS011;40846;44.788;20.486;2023-09-19T13:38:10;15.27;;;7.00;;
54945;SDS011;40846;44.788;20.486;2023-09-19T13:40:40;15.95;;;5.97;;
54945;SDS011;40846;44.788;20.486;2023-09-19T13:43:07;20.05;;;7.00;;
54945;SDS011;40846;44.788;20.486;2023-09-19T13:45:33;15.23;;;6.60;;
54945;SDS011;40846;44.788;20.486;2023-09-19T13:47:59;22.67;;;7.28;;
54945;SDS011;40846;44.788;20.486;2023-09-19T13:50:25;15.90;;;6.80;;
54945;SDS011;40846;44.788;20.486;2023-09-19T13:52:51;28.65;;;6.75;;
54945;SDS011;40846;44.788;20.486;2023-09-19T13:55:18;20.70;;;7.43;;
54945;SDS011;40846;44.788;20.486;2023-09-19T13:57:48;21.33;;;7.50;;
54945;SDS011;40846;44.788;20.486;2023-09-19T14:00:15;28.50;;;8.00;;
54945;SDS011;40846;44.788;20.486;2023-09-19T14:02:42;28.65;;;8.30;;
54945;SDS011;40846;44.788;20.486;2023-09-19T14:05:11;34.35;;;8.25;;
54945;SDS011;40846;44.788;20.486;2023-09-19T14:07:42;24.52;;;8.15;;
54945;SDS011;40846;44.788;20.486;2023-09-19T14:10:08;38.58;;;8.48;;
54945;SDS011;40846;44.788;20.486;2023-09-19T14:12:35;25.92;;;8.27;;
54945;SDS011;40846;44.788;20.486;2023-09-19T14:15:02;20.58;;;7.70;;
54945;SDS011;40846;44.788;20.486;2023-09-19T14:17:28;23.75;;;7.97;;
54945;SDS011;40846;44.788;20.486;2023-09-19T14:19:55;21.38;;;8.02;;
54945;SDS011;40846;44.788;20.486;2023-09-19T14:22:21;25.80;;;8.45;;
54945;SDS011;40846;44.788;20.486;2023-09-19T14:24:54;27.48;;;8.85;;
54945;SDS011;40846;44.788;20.486;2023-09-19T14:27:20;29.15;;;10.40;;
54945;SDS011;40846;44.788;20.486;2023-09-19T14:29:46;27.38;;;9.80;;
54945;SDS011;40846;44.788;20.486;2023-09-19T14:32:12;25.05;;;9.43;;
54945;SDS011;40846;44.788;20.486;2023-09-19T14:34:39;30.42;;;9.85;;
54945;SDS011;40846;44.788;20.486;2023-09-19T14:37:08;30.95;;;9.15;;
54945;SDS011;40846;44.788;20.486;2023-09-19T14:39:34;25.05;;;9.45;;
54945;SDS011;40846;44.788;20.486;2023-09-19T14:42:01;22.52;;;9.07;;
54945;SDS011;40846;44.788;20.486;2023-09-19T14:44:28;35.90;;;10.50;;
54945;SDS011;40846;44.788;20.486;2023-09-19T14:46:54;33.20;;;11.23;;
54945;SDS011;40846;44.788;20.486;2023-09-19T14:49:20;21.70;;;7.85;;
54945;SDS011;40846;44.788;20.486;2023-09-19T14:51:46;29.23;;;9.15;;
54945;SDS011;40846;44.788;20.486;2023-09-19T14:54:13;29.20;;;9.65;;
54945;SDS011;40846;44.788;20.486;2023-09-19T14:56:42;44.97;;;9.30;;
54945;SDS011;40846;44.788;20.486;2023-09-19T14:59:08;18.00;;;7.25;;
54945;SDS011;40846;44.788;20.486;2023-09-19T15:01:36;28.83;;;8.48;;
54945;SDS011;40846;44.788;20.486;2023-09-19T15:04:05;37.90;;;9.52;;
54945;SDS011;40846;44.788;20.486;2023-09-19T15:06:31;29.77;;;9.23;;
54945;SDS011;40846;44.788;20.486;2023-09-19T15:08:57;34.28;;;9.38;;
54945;SDS011;40846;44.788;20.486;2023-09-19T15:11:23;39.67;;;9.90;;
54945;SDS011;40846;44.788;20.486;2023-09-19T15:13:50;26.13;;;9.60;;
54945;SDS011;40846;44.788;20.486;2023-09-19T15:16:19;33.00;;;10.75;;